Kenyon, Rhode Island
Current Conditions -  °F | °C
As of 6:53 PM on Thursday 27 Nov 2014 (Local Time) from KWST Reporting Station
Light Snow Light Snow  
Wind Chill: 28°   Ceiling: 5000
Heat Index: 34°   Visibility: 5mi
Dew Point: 32°   Wind: 7mph
Humidity: 92%   Direction: 350°N
Pressure: 30"   Gusts: NA
Location:  41.45°N, 71.63°W
Report Text: KWST 272353Z AUTO 35006KT 5SM -SN BR SCT027 OVC050 01/00 A3000 RMK AO2 RAE04SNB04 SLP158 P0001 60001 T00110000 10044 20011 51012
Loading
Personal Weather Stations






























Interactive Weather Map New forecast layout! Learn more

10-Day Weather Forecast

Advertisements
Track Severe Weather on mobile